sensor_id;sensor_type;location;lat;lon;timestamp;temperature;humidity
34099;DHT22;20374;49.474;10.944;2023-08-08T00:01:31;12.10;99.90
34099;DHT22;20374;49.474;10.944;2023-08-08T00:03:57;12.10;99.90
34099;DHT22;20374;49.474;10.944;2023-08-08T00:06:23;12.10;99.90
34099;DHT22;20374;49.474;10.944;2023-08-08T00:08:49;12.10;99.90
34099;DHT22;20374;49.474;10.944;2023-08-08T00:11:14;12.10;99.90
34099;DHT22;20374;49.474;10.944;2023-08-08T00:13:40;12.10;99.90
34099;DHT22;20374;49.474;10.944;2023-08-08T00:16:06;12.10;99.90
34099;DHT22;20374;49.474;10.944;2023-08-08T00:18:32;12.10;99.90
34099;DHT22;20374;49.474;10.944;2023-08-08T00:20:58;12.10;99.90
34099;DHT22;20374;49.474;10.944;2023-08-08T00:23:24;12.10;99.90
34099;DHT22;20374;49.474;10.944;2023-08-08T00:25:50;12.20;99.90
34099;DHT22;20374;49.474;10.944;2023-08-08T00:28:17;12.10;99.90
34099;DHT22;20374;49.474;10.944;2023-08-08T00:30:44;12.10;99.90
34099;DHT22;20374;49.474;10.944;2023-08-08T00:33:10;12.10;99.90
34099;DHT22;20374;49.474;10.944;2023-08-08T00:35:36;12.10;99.90
34099;DHT22;20374;49.474;10.944;2023-08-08T00:38:02;12.00;99.90
34099;DHT22;20374;49.474;10.944;2023-08-08T00:40:28;12.10;99.90
34099;DHT22;20374;49.474;10.944;2023-08-08T00:42:54;12.10;99.90
34099;DHT22;20374;49.474;10.944;2023-08-08T00:45:20;12.10;99.90
34099;DHT22;20374;49.474;10.944;2023-08-08T00:47:46;12.10;99.90
34099;DHT22;20374;49.474;10.944;2023-08-08T00:50:13;12.10;99.90
34099;DHT22;20374;49.474;10.944;2023-08-08T00:52:40;12.00;99.90
34099;DHT22;20374;49.474;10.944;2023-08-08T00:55:07;12.00;99.90
34099;DHT22;20374;49.474;10.944;2023-08-08T00:57:34;12.00;99.90
34099;DHT22;20374;49.474;10.944;2023-08-08T01:00:01;12.00;99.90
34099;DHT22;20374;49.474;10.944;2023-08-08T01:02:29;12.00;99.90
34099;DHT22;20374;49.474;10.944;2023-08-08T01:04:55;12.30;99.90
34099;DHT22;20374;49.474;10.944;2023-08-08T01:07:43;12.00;99.90
34099;DHT22;20374;49.474;10.944;2023-08-08T01:10:16;12.10;99.90
34099;DHT22;20374;49.474;10.944;2023-08-08T01:12:48;12.10;99.90
34099;DHT22;20374;49.474;10.944;2023-08-08T01:15:16;12.10;99.90
34099;DHT22;20374;49.474;10.944;2023-08-08T01:17:43;12.10;99.90
34099;DHT22;20374;49.474;10.944;2023-08-08T01:20:12;12.20;99.90
34099;DHT22;20374;49.474;10.944;2023-08-08T01:22:50;12.20;99.90
34099;DHT22;20374;49.474;10.944;2023-08-08T01:25:21;12.20;99.90
34099;DHT22;20374;49.474;10.944;2023-08-08T01:27:48;12.20;99.90
34099;DHT22;20374;49.474;10.944;2023-08-08T01:30:14;12.30;99.90
34099;DHT22;20374;49.474;10.944;2023-08-08T01:32:40;12.30;99.90
34099;DHT22;20374;49.474;10.944;2023-08-08T01:35:07;12.30;99.90
34099;DHT22;20374;49.474;10.944;2023-08-08T01:37:39;12.20;99.90
34099;DHT22;20374;49.474;10.944;2023-08-08T01:40:08;12.20;99.90
34099;DHT22;20374;49.474;10.944;2023-08-08T01:42:36;12.20;99.90
34099;DHT22;20374;49.474;10.944;2023-08-08T01:45:02;12.10;99.90
34099;DHT22;20374;49.474;10.944;2023-08-08T01:47:29;12.10;99.90
34099;DHT22;20374;49.474;10.944;2023-08-08T01:49:56;12.10;99.90
34099;DHT22;20374;49.474;10.944;2023-08-08T01:52:23;12.10;99.90
34099;DHT22;20374;49.474;10.944;2023-08-08T01:54:49;12.10;99.90
34099;DHT22;20374;49.474;10.944;2023-08-08T01:57:15;12.10;99.90
34099;DHT22;20374;49.474;10.944;2023-08-08T01:59:41;12.10;99.90
34099;DHT22;20374;49.474;10.944;2023-08-08T02:02:07;12.10;99.90
34099;DHT22;20374;49.474;10.944;2023-08-08T02:04:33;12.10;99.90
34099;DHT22;20374;49.474;10.944;2023-08-08T02:06:59;12.10;99.90
34099;DHT22;20374;49.474;10.944;2023-08-08T02:09:25;12.20;99.90
34099;DHT22;20374;49.474;10.944;2023-08-08T02:11:52;12.20;99.90
34099;DHT22;20374;49.474;10.944;2023-08-08T02:14:18;12.20;99.90
34099;DHT22;20374;49.474;10.944;2023-08-08T02:16:44;12.20;99.90
34099;DHT22;20374;49.474;10.944;2023-08-08T02:19:10;12.20;99.90
34099;DHT22;20374;49.474;10.944;2023-08-08T02:21:36;12.20;99.90
34099;DHT22;20374;49.474;10.944;2023-08-08T02:24:02;12.20;99.90
34099;DHT22;20374;49.474;10.944;2023-08-08T02:26:28;12.20;99.90
34099;DHT22;20374;49.474;10.944;2023-08-08T02:28:54;12.20;99.90
34099;DHT22;20374;49.474;10.944;2023-08-08T02:31:20;12.20;99.90
34099;DHT22;20374;49.474;10.944;2023-08-08T02:33:48;12.20;99.90
34099;DHT22;20374;49.474;10.944;2023-08-08T02:36:15;12.20;99.90
34099;DHT22;20374;49.474;10.944;2023-08-08T02:38:40;12.20;99.90
34099;DHT22;20374;49.474;10.944;2023-08-08T02:41:06;12.20;99.90
34099;DHT22;20374;49.474;10.944;2023-08-08T02:43:32;12.30;99.90
34099;DHT22;20374;49.474;10.944;2023-08-08T02:45:58;12.30;99.90
34099;DHT22;20374;49.474;10.944;2023-08-08T02:48:24;12.30;99.90
34099;DHT22;20374;49.474;10.944;2023-08-08T02:50:50;12.30;99.90
34099;DHT22;20374;49.474;10.944;2023-08-08T02:53:18;12.30;99.90
34099;DHT22;20374;49.474;10.944;2023-08-08T02:55:47;12.40;99.90
34099;DHT22;20374;49.474;10.944;2023-08-08T02:58:13;12.30;99.90
34099;DHT22;20374;49.474;10.944;2023-08-08T03:00:39;12.20;99.90
34099;DHT22;20374;49.474;10.944;2023-08-08T03:03:09;12.10;99.90
34099;DHT22;20374;49.474;10.944;2023-08-08T03:05:34;12.10;99.90
34099;DHT22;20374;49.474;10.944;2023-08-08T03:08:00;12.00;99.90
34099;DHT22;20374;49.474;10.944;2023-08-08T03:10:27;12.00;99.90
34099;DHT22;20374;49.474;10.944;2023-08-08T03:12:53;11.90;99.90
34099;DHT22;20374;49.474;10.944;2023-08-08T03:15:20;11.90;99.90
34099;DHT22;20374;49.474;10.944;2023-08-08T03:17:46;11.80;99.90
34099;DHT22;20374;49.474;10.944;2023-08-08T03:20:12;11.80;99.90
34099;DHT22;20374;49.474;10.944;2023-08-08T03:22:38;11.70;99.90
34099;DHT22;20374;49.474;10.944;2023-08-08T03:25:05;11.70;99.90
34099;DHT22;20374;49.474;10.944;2023-08-08T03:27:31;11.70;99.90
34099;DHT22;20374;49.474;10.944;2023-08-08T03:29:59;11.70;99.90
34099;DHT22;20374;49.474;10.944;2023-08-08T03:32:24;11.60;99.90
34099;DHT22;20374;49.474;10.944;2023-08-08T03:34:50;11.50;99.90
34099;DHT22;20374;49.474;10.944;2023-08-08T03:37:16;11.50;99.90
34099;DHT22;20374;49.474;10.944;2023-08-08T03:39:43;11.50;99.90
34099;DHT22;20374;49.474;10.944;2023-08-08T03:42:09;11.40;99.90
34099;DHT22;20374;49.474;10.944;2023-08-08T03:44:35;11.40;99.90
34099;DHT22;20374;49.474;10.944;2023-08-08T03:47:01;11.40;99.90
34099;DHT22;20374;49.474;10.944;2023-08-08T03:49:27;11.40;99.90
34099;DHT22;20374;49.474;10.944;2023-08-08T03:51:53;11.30;99.90
34099;DHT22;20374;49.474;10.944;2023-08-08T03:54:19;11.30;99.90
34099;DHT22;20374;49.474;10.944;2023-08-08T03:56:45;11.30;99.90
34099;DHT22;20374;49.474;10.944;2023-08-08T03:59:12;11.30;99.90
34099;DHT22;20374;49.474;10.944;2023-08-08T04:01:37;11.30;99.90
34099;DHT22;20374;49.474;10.944;2023-08-08T04:04:04;11.30;99.90
34099;DHT22;20374;49.474;10.944;2023-08-08T04:06:30;11.20;99.90
34099;DHT22;20374;49.474;10.944;2023-08-08T04:08:56;11.30;99.90
34099;DHT22;20374;49.474;10.944;2023-08-08T04:11:22;11.20;99.90
34099;DHT22;20374;49.474;10.944;2023-08-08T04:13:48;11.30;99.90
34099;DHT22;20374;49.474;10.944;2023-08-08T04:16:14;11.30;99.90
34099;DHT22;20374;49.474;10.944;2023-08-08T04:18:40;11.30;99.90
34099;DHT22;20374;49.474;10.944;2023-08-08T04:21:06;11.30;99.90
34099;DHT22;20374;49.474;10.944;2023-08-08T04:23:32;11.30;99.90
34099;DHT22;20374;49.474;10.944;2023-08-08T04:25:58;11.30;99.90
34099;DHT22;20374;49.474;10.944;2023-08-08T04:28:24;11.20;99.90
34099;DHT22;20374;49.474;10.944;2023-08-08T04:30:50;11.30;99.90
34099;DHT22;20374;49.474;10.944;2023-08-08T04:33:16;11.30;99.90
34099;DHT22;20374;49.474;10.944;2023-08-08T04:35:42;11.30;99.90
34099;DHT22;20374;49.474;10.944;2023-08-08T04:38:08;11.30;99.90
34099;DHT22;20374;49.474;10.944;2023-08-08T04:40:34;11.30;99.90
34099;DHT22;20374;49.474;10.944;2023-08-08T04:43:01;11.50;99.90
34099;DHT22;20374;49.474;10.944;2023-08-08T04:45:26;11.60;99.90
34099;DHT22;20374;49.474;10.944;2023-08-08T04:47:55;11.80;99.90
34099;DHT22;20374;49.474;10.944;2023-08-08T04:50:21;11.80;99.90
34099;DHT22;20374;49.474;10.944;2023-08-08T04:52:47;11.90;99.90
34099;DHT22;20374;49.474;10.944;2023-08-08T04:55:13;11.90;99.90
34099;DHT22;20374;49.474;10.944;2023-08-08T04:57:39;12.00;99.90
34099;DHT22;20374;49.474;10.944;2023-08-08T05:00:05;12.00;99.90
34099;DHT22;20374;49.474;10.944;2023-08-08T05:02:34;11.90;99.90
34099;DHT22;20374;49.474;10.944;2023-08-08T05:05:00;11.90;99.90
34099;DHT22;20374;49.474;10.944;2023-08-08T05:07:27;12.00;99.90
34099;DHT22;20374;49.474;10.944;2023-08-08T05:09:53;12.50;99.90
34099;DHT22;20374;49.474;10.944;2023-08-08T05:12:19;13.20;99.90
34099;DHT22;20374;49.474;10.944;2023-08-08T05:14:44;13.80;99.90
34099;DHT22;20374;49.474;10.944;2023-08-08T05:17:10;14.00;99.90
34099;DHT22;20374;49.474;10.944;2023-08-08T05:19:36;14.00;99.90
34099;DHT22;20374;49.474;10.944;2023-08-08T05:22:02;13.60;99.90
34099;DHT22;20374;49.474;10.944;2023-08-08T05:24:28;13.30;99.90
34099;DHT22;20374;49.474;10.944;2023-08-08T05:26:54;13.00;99.90
34099;DHT22;20374;49.474;10.944;2023-08-08T05:29:20;13.00;99.90
34099;DHT22;20374;49.474;10.944;2023-08-08T05:31:46;13.00;99.90
34099;DHT22;20374;49.474;10.944;2023-08-08T05:34:13;13.20;99.90
34099;DHT22;20374;49.474;10.944;2023-08-08T05:36:39;13.30;99.90
34099;DHT22;20374;49.474;10.944;2023-08-08T05:39:05;13.50;99.90
34099;DHT22;20374;49.474;10.944;2023-08-08T05:41:33;13.70;99.90
34099;DHT22;20374;49.474;10.944;2023-08-08T05:43:59;13.90;99.90
34099;DHT22;20374;49.474;10.944;2023-08-08T05:46:24;14.00;99.90
34099;DHT22;20374;49.474;10.944;2023-08-08T05:48:50;14.20;99.90
34099;DHT22;20374;49.474;10.944;2023-08-08T05:51:16;14.30;99.90
34099;DHT22;20374;49.474;10.944;2023-08-08T05:53:42;14.30;99.90
34099;DHT22;20374;49.474;10.944;2023-08-08T05:56:08;14.40;99.90
34099;DHT22;20374;49.474;10.944;2023-08-08T05:58:37;14.80;99.90
34099;DHT22;20374;49.474;10.944;2023-08-08T06:01:03;15.40;99.90
34099;DHT22;20374;49.474;10.944;2023-08-08T06:03:35;15.80;99.90
34099;DHT22;20374;49.474;10.944;2023-08-08T06:06:03;16.20;99.90
34099;DHT22;20374;49.474;10.944;2023-08-08T06:08:29;16.60;99.90
34099;DHT22;20374;49.474;10.944;2023-08-08T06:10:55;16.60;99.90
34099;DHT22;20374;49.474;10.944;2023-08-08T06:13:21;16.40;99.90
34099;DHT22;20374;49.474;10.944;2023-08-08T06:15:47;15.80;99.90
34099;DHT22;20374;49.474;10.944;2023-08-08T06:18:13;15.30;99.90
34099;DHT22;20374;49.474;10.944;2023-08-08T06:20:39;14.90;99.90
34099;DHT22;20374;49.474;10.944;2023-08-08T06:23:05;14.70;99.90
34099;DHT22;20374;49.474;10.944;2023-08-08T06:25:30;14.70;99.90
34099;DHT22;20374;49.474;10.944;2023-08-08T06:27:56;14.90;99.90
34099;DHT22;20374;49.474;10.944;2023-08-08T06:30:23;15.10;99.90
34099;DHT22;20374;49.474;10.944;2023-08-08T06:32:48;15.40;99.90
34099;DHT22;20374;49.474;10.944;2023-08-08T06:35:15;15.60;99.90
34099;DHT22;20374;49.474;10.944;2023-08-08T06:37:42;15.80;99.90
34099;DHT22;20374;49.474;10.944;2023-08-08T06:40:09;16.30;99.90
34099;DHT22;20374;49.474;10.944;2023-08-08T06:42:36;17.10;99.90
34099;DHT22;20374;49.474;10.944;2023-08-08T06:45:05;17.60;99.90
34099;DHT22;20374;49.474;10.944;2023-08-08T06:47:31;17.90;99.90
34099;DHT22;20374;49.474;10.944;2023-08-08T06:49:57;18.10;99.90
34099;DHT22;20374;49.474;10.944;2023-08-08T06:52:23;18.40;99.90
34099;DHT22;20374;49.474;10.944;2023-08-08T06:54:49;18.10;99.90
34099;DHT22;20374;49.474;10.944;2023-08-08T06:57:15;17.70;99.90
34099;DHT22;20374;49.474;10.944;2023-08-08T06:59:41;17.20;99.90
34099;DHT22;20374;49.474;10.944;2023-08-08T07:02:07;17.00;99.90
34099;DHT22;20374;49.474;10.944;2023-08-08T07:04:33;17.10;99.90
34099;DHT22;20374;49.474;10.944;2023-08-08T07:06:58;17.70;99.90
34099;DHT22;20374;49.474;10.944;2023-08-08T07:09:24;18.60;99.90
34099;DHT22;20374;49.474;10.944;2023-08-08T07:11:50;19.40;99.90
34099;DHT22;20374;49.474;10.944;2023-08-08T07:14:16;20.00;99.90
34099;DHT22;20374;49.474;10.944;2023-08-08T07:16:42;19.20;99.90
34099;DHT22;20374;49.474;10.944;2023-08-08T07:19:08;18.60;99.90
34099;DHT22;20374;49.474;10.944;2023-08-08T07:21:34;18.10;99.90
34099;DHT22;20374;49.474;10.944;2023-08-08T07:24:00;17.80;99.90
34099;DHT22;20374;49.474;10.944;2023-08-08T07:26:25;17.60;99.90
34099;DHT22;20374;49.474;10.944;2023-08-08T07:28:51;17.60;99.90
34099;DHT22;20374;49.474;10.944;2023-08-08T07:31:17;17.70;99.90
34099;DHT22;20374;49.474;10.944;2023-08-08T07:33:43;17.90;99.90
34099;DHT22;20374;49.474;10.944;2023-08-08T07:36:09;18.20;99.90
34099;DHT22;20374;49.474;10.944;2023-08-08T07:38:35;18.90;99.90
34099;DHT22;20374;49.474;10.944;2023-08-08T07:41:00;19.50;99.90
34099;DHT22;20374;49.474;10.944;2023-08-08T07:43:26;19.60;99.90
34099;DHT22;20374;49.474;10.944;2023-08-08T07:45:53;19.40;99.90
34099;DHT22;20374;49.474;10.944;2023-08-08T07:48:19;19.10;99.90
34099;DHT22;20374;49.474;10.944;2023-08-08T07:50:45;19.10;99.90
34099;DHT22;20374;49.474;10.944;2023-08-08T07:53:11;19.20;99.90
34099;DHT22;20374;49.474;10.944;2023-08-08T07:55:37;19.50;99.90
34099;DHT22;20374;49.474;10.944;2023-08-08T07:58:03;19.60;99.90
34099;DHT22;20374;49.474;10.944;2023-08-08T08:00:29;19.40;99.90
34099;DHT22;20374;49.474;10.944;2023-08-08T08:02:56;19.20;99.90
34099;DHT22;20374;49.474;10.944;2023-08-08T08:05:22;18.80;99.90
34099;DHT22;20374;49.474;10.944;2023-08-08T08:07:48;18.60;99.90
34099;DHT22;20374;49.474;10.944;2023-08-08T08:10:13;18.50;99.90
34099;DHT22;20374;49.474;10.944;2023-08-08T08:12:40;19.00;99.90
34099;DHT22;20374;49.474;10.944;2023-08-08T08:15:10;19.40;99.90
34099;DHT22;20374;49.474;10.944;2023-08-08T08:17:36;19.40;99.90
34099;DHT22;20374;49.474;10.944;2023-08-08T08:20:03;19.40;99.90
34099;DHT22;20374;49.474;10.944;2023-08-08T08:22:37;19.30;99.90
34099;DHT22;20374;49.474;10.944;2023-08-08T08:25:05;19.10;99.90
34099;DHT22;20374;49.474;10.944;2023-08-08T08:27:33;18.90;99.90
34099;DHT22;20374;49.474;10.944;2023-08-08T08:29:59;18.60;99.90
34099;DHT22;20374;49.474;10.944;2023-08-08T08:32:24;18.40;99.90
34099;DHT22;20374;49.474;10.944;2023-08-08T08:34:50;18.30;99.90
34099;DHT22;20374;49.474;10.944;2023-08-08T08:37:16;18.30;99.90
34099;DHT22;20374;49.474;10.944;2023-08-08T08:39:42;18.40;99.90
34099;DHT22;20374;49.474;10.944;2023-08-08T08:42:09;18.60;99.90
34099;DHT22;20374;49.474;10.944;2023-08-08T08:44:37;19.00;99.90
34099;DHT22;20374;49.474;10.944;2023-08-08T08:47:07;19.50;99.90
34099;DHT22;20374;49.474;10.944;2023-08-08T08:49:38;20.00;99.90
34099;DHT22;20374;49.474;10.944;2023-08-08T08:52:04;20.10;99.70
34099;DHT22;20374;49.474;10.944;2023-08-08T08:54:32;19.80;99.50
34099;DHT22;20374;49.474;10.944;2023-08-08T08:56:59;19.30;99.40
34099;DHT22;20374;49.474;10.944;2023-08-08T08:59:25;18.90;98.90
34099;DHT22;20374;49.474;10.944;2023-08-08T09:01:52;18.50;99.70
34099;DHT22;20374;49.474;10.944;2023-08-08T09:04:20;18.50;99.90
34099;DHT22;20374;49.474;10.944;2023-08-08T09:06:47;18.70;99.90
34099;DHT22;20374;49.474;10.944;2023-08-08T09:09:15;18.80;99.90
34099;DHT22;20374;49.474;10.944;2023-08-08T09:11:52;18.80;99.90
34099;DHT22;20374;49.474;10.944;2023-08-08T09:14:22;19.10;99.40
34099;DHT22;20374;49.474;10.944;2023-08-08T09:16:49;19.80;99.70
34099;DHT22;20374;49.474;10.944;2023-08-08T09:19:16;19.90;97.80
34099;DHT22;20374;49.474;10.944;2023-08-08T09:21:43;19.70;96.40
34099;DHT22;20374;49.474;10.944;2023-08-08T09:24:10;19.50;96.10
34099;DHT22;20374;49.474;10.944;2023-08-08T09:26:35;19.00;97.00
34099;DHT22;20374;49.474;10.944;2023-08-08T09:29:04;18.60;97.40
34099;DHT22;20374;49.474;10.944;2023-08-08T09:31:31;19.20;96.60
34099;DHT22;20374;49.474;10.944;2023-08-08T09:34:00;19.90;95.70
34099;DHT22;20374;49.474;10.944;2023-08-08T09:36:27;20.40;95.10
34099;DHT22;20374;49.474;10.944;2023-08-08T09:38:54;20.40;93.40
34099;DHT22;20374;49.474;10.944;2023-08-08T09:41:21;20.50;93.90
34099;DHT22;20374;49.474;10.944;2023-08-08T09:43:48;21.10;93.70
34099;DHT22;20374;49.474;10.944;2023-08-08T09:46:14;21.70;94.30
34099;DHT22;20374;49.474;10.944;2023-08-08T09:48:41;23.10;92.90
34099;DHT22;20374;49.474;10.944;2023-08-08T09:51:08;24.40;90.70
34099;DHT22;20374;49.474;10.944;2023-08-08T09:53:35;24.50;85.80
34099;DHT22;20374;49.474;10.944;2023-08-08T09:56:05;24.00;86.10
34099;DHT22;20374;49.474;10.944;2023-08-08T09:58:31;23.50;87.30
34099;DHT22;20374;49.474;10.944;2023-08-08T10:00:58;23.90;87.90
34099;DHT22;20374;49.474;10.944;2023-08-08T10:03:24;23.40;83.40
34099;DHT22;20374;49.474;10.944;2023-08-08T10:05:50;23.50;86.00
34099;DHT22;20374;49.474;10.944;2023-08-08T10:08:16;23.00;83.40
34099;DHT22;20374;49.474;10.944;2023-08-08T10:10:45;23.10;81.50
34099;DHT22;20374;49.474;10.944;2023-08-08T10:13:22;22.80;82.30
34099;DHT22;20374;49.474;10.944;2023-08-08T10:15:49;22.50;84.40
34099;DHT22;20374;49.474;10.944;2023-08-08T10:18:15;22.20;81.70
34099;DHT22;20374;49.474;10.944;2023-08-08T10:20:47;22.20;84.00
34099;DHT22;20374;49.474;10.944;2023-08-08T10:23:20;22.20;86.30
34099;DHT22;20374;49.474;10.944;2023-08-08T10:25:47;21.90;84.10
34099;DHT22;20374;49.474;10.944;2023-08-08T10:28:15;22.00;89.30
34099;DHT22;20374;49.474;10.944;2023-08-08T10:33:40;21.50;84.70
34099;DHT22;20374;49.474;10.944;2023-08-08T10:36:07;21.00;86.90
34099;DHT22;20374;49.474;10.944;2023-08-08T10:38:47;20.80;88.10
34099;DHT22;20374;49.474;10.944;2023-08-08T10:41:19;20.70;87.50
34099;DHT22;20374;49.474;10.944;2023-08-08T10:43:54;20.70;87.30
34099;DHT22;20374;49.474;10.944;2023-08-08T10:46:27;20.50;86.50
34099;DHT22;20374;49.474;10.944;2023-08-08T10:48:55;20.30;87.30
34099;DHT22;20374;49.474;10.944;2023-08-08T10:51:22;20.20;89.50
34099;DHT22;20374;49.474;10.944;2023-08-08T10:53:51;20.30;90.60
34099;DHT22;20374;49.474;10.944;2023-08-08T10:56:19;20.40;89.20
34099;DHT22;20374;49.474;10.944;2023-08-08T10:58:49;20.30;81.60
34099;DHT22;20374;49.474;10.944;2023-08-08T11:01:15;20.20;83.30
34099;DHT22;20374;49.474;10.944;2023-08-08T11:03:42;20.20;85.40
34099;DHT22;20374;49.474;10.944;2023-08-08T11:06:10;20.20;84.90
34099;DHT22;20374;49.474;10.944;2023-08-08T11:08:37;20.20;85.10
34099;DHT22;20374;49.474;10.944;2023-08-08T11:11:05;20.00;82.80
34099;DHT22;20374;49.474;10.944;2023-08-08T11:13:32;20.00;86.90
34099;DHT22;20374;49.474;10.944;2023-08-08T11:15:58;20.10;85.60
34099;DHT22;20374;49.474;10.944;2023-08-08T11:18:25;20.20;87.50
34099;DHT22;20374;49.474;10.944;2023-08-08T11:20:51;20.30;86.70
34099;DHT22;20374;49.474;10.944;2023-08-08T11:23:17;20.30;83.40
34099;DHT22;20374;49.474;10.944;2023-08-08T11:25:45;20.20;83.70
34099;DHT22;20374;49.474;10.944;2023-08-08T11:28:12;20.10;82.60
34099;DHT22;20374;49.474;10.944;2023-08-08T11:30:43;20.10;84.30
34099;DHT22;20374;49.474;10.944;2023-08-08T11:33:13;20.20;81.50
34099;DHT22;20374;49.474;10.944;2023-08-08T11:35:43;20.20;82.40
34099;DHT22;20374;49.474;10.944;2023-08-08T11:38:11;20.30;81.60
34099;DHT22;20374;49.474;10.944;2023-08-08T11:40:38;20.20;83.40
34099;DHT22;20374;49.474;10.944;2023-08-08T11:43:05;20.10;84.50
34099;DHT22;20374;49.474;10.944;2023-08-08T11:45:32;20.30;87.50
34099;DHT22;20374;49.474;10.944;2023-08-08T11:47:59;20.50;85.20
34099;DHT22;20374;49.474;10.944;2023-08-08T11:50:25;20.70;87.00
34099;DHT22;20374;49.474;10.944;2023-08-08T11:52:54;20.90;86.60
34099;DHT22;20374;49.474;10.944;2023-08-08T11:55:21;21.30;87.30
34099;DHT22;20374;49.474;10.944;2023-08-08T11:57:54;21.30;83.10
34099;DHT22;20374;49.474;10.944;2023-08-08T12:00:27;21.30;83.90
34099;DHT22;20374;49.474;10.944;2023-08-08T12:02:54;21.30;82.20
34099;DHT22;20374;49.474;10.944;2023-08-08T12:05:21;21.10;81.20
34099;DHT22;20374;49.474;10.944;2023-08-08T12:07:48;20.90;82.10
34099;DHT22;20374;49.474;10.944;2023-08-08T12:10:20;21.00;82.20
34099;DHT22;20374;49.474;10.944;2023-08-08T12:12:51;21.30;85.10
34099;DHT22;20374;49.474;10.944;2023-08-08T12:15:17;21.50;83.80
34099;DHT22;20374;49.474;10.944;2023-08-08T12:17:43;21.50;82.40
34099;DHT22;20374;49.474;10.944;2023-08-08T12:20:09;21.50;82.90
34099;DHT22;20374;49.474;10.944;2023-08-08T12:22:35;21.50;84.00
34099;DHT22;20374;49.474;10.944;2023-08-08T12:25:02;21.60;83.60
34099;DHT22;20374;49.474;10.944;2023-08-08T12:27:29;21.70;83.70
34099;DHT22;20374;49.474;10.944;2023-08-08T12:29:56;22.10;86.90
34099;DHT22;20374;49.474;10.944;2023-08-08T12:32:24;22.40;86.00
34099;DHT22;20374;49.474;10.944;2023-08-08T12:34:51;22.40;80.50
34099;DHT22;20374;49.474;10.944;2023-08-08T12:37:17;22.00;79.30
34099;DHT22;20374;49.474;10.944;2023-08-08T12:39:43;22.00;84.80
34099;DHT22;20374;49.474;10.944;2023-08-08T12:42:10;22.00;82.60
34099;DHT22;20374;49.474;10.944;2023-08-08T12:44:36;22.30;84.80
34099;DHT22;20374;49.474;10.944;2023-08-08T12:47:01;22.90;83.80
34099;DHT22;20374;49.474;10.944;2023-08-08T12:49:27;23.10;77.70
34099;DHT22;20374;49.474;10.944;2023-08-08T12:51:53;22.80;79.90
34099;DHT22;20374;49.474;10.944;2023-08-08T12:54:21;22.50;81.20
34099;DHT22;20374;49.474;10.944;2023-08-08T12:56:47;22.60;83.20
34099;DHT22;20374;49.474;10.944;2023-08-08T12:59:14;23.10;83.70
34099;DHT22;20374;49.474;10.944;2023-08-08T13:01:40;23.20;80.80
34099;DHT22;20374;49.474;10.944;2023-08-08T13:04:06;23.10;81.90
34099;DHT22;20374;49.474;10.944;2023-08-08T13:06:32;23.10;80.30
34099;DHT22;20374;49.474;10.944;2023-08-08T13:08:59;22.90;79.10
34099;DHT22;20374;49.474;10.944;2023-08-08T13:11:28;22.80;82.10
34099;DHT22;20374;49.474;10.944;2023-08-08T13:13:54;23.20;80.70
34099;DHT22;20374;49.474;10.944;2023-08-08T13:16:20;23.40;77.30
34099;DHT22;20374;49.474;10.944;2023-08-08T13:18:46;23.10;78.50
34099;DHT22;20374;49.474;10.944;2023-08-08T13:21:12;22.70;78.60
34099;DHT22;20374;49.474;10.944;2023-08-08T13:23:40;22.70;81.30
34099;DHT22;20374;49.474;10.944;2023-08-08T13:26:06;23.00;81.00
34099;DHT22;20374;49.474;10.944;2023-08-08T13:28:32;23.20;78.60
34099;DHT22;20374;49.474;10.944;2023-08-08T13:30:58;23.00;72.90
34099;DHT22;20374;49.474;10.944;2023-08-08T13:33:24;22.30;72.80
34099;DHT22;20374;49.474;10.944;2023-08-08T13:35:49;21.90;77.90
34099;DHT22;20374;49.474;10.944;2023-08-08T13:38:15;22.00;78.60
34099;DHT22;20374;49.474;10.944;2023-08-08T13:40:42;21.90;78.50
34099;DHT22;20374;49.474;10.944;2023-08-08T13:43:08;21.80;76.20
34099;DHT22;20374;49.474;10.944;2023-08-08T13:45:34;22.10;80.50
34099;DHT22;20374;49.474;10.944;2023-08-08T13:48:00;22.40;78.60
34099;DHT22;20374;49.474;10.944;2023-08-08T13:50:26;22.50;77.20
34099;DHT22;20374;49.474;10.944;2023-08-08T13:52:54;22.70;77.10
34099;DHT22;20374;49.474;10.944;2023-08-08T13:55:20;22.90;79.50
34099;DHT22;20374;49.474;10.944;2023-08-08T13:57:46;23.00;77.70
34099;DHT22;20374;49.474;10.944;2023-08-08T14:00:12;23.00;80.10
34099;DHT22;20374;49.474;10.944;2023-08-08T14:02:41;23.20;77.80
34099;DHT22;20374;49.474;10.944;2023-08-08T14:05:07;22.90;73.90
34099;DHT22;20374;49.474;10.944;2023-08-08T14:07:34;22.50;76.10
34099;DHT22;20374;49.474;10.944;2023-08-08T14:10:01;22.10;75.30
34099;DHT22;20374;49.474;10.944;2023-08-08T14:12:27;22.10;80.10
34099;DHT22;20374;49.474;10.944;2023-08-08T14:14:54;22.00;79.10
34099;DHT22;20374;49.474;10.944;2023-08-08T14:17:19;21.90;76.30
34099;DHT22;20374;49.474;10.944;2023-08-08T14:19:45;21.70;77.70
34099;DHT22;20374;49.474;10.944;2023-08-08T14:22:11;21.30;77.70
34099;DHT22;20374;49.474;10.944;2023-08-08T14:24:37;21.30;80.90
34099;DHT22;20374;49.474;10.944;2023-08-08T14:27:03;21.20;81.00
34099;DHT22;20374;49.474;10.944;2023-08-08T14:29:29;21.20;79.60
34099;DHT22;20374;49.474;10.944;2023-08-08T14:31:55;21.00;81.40
34099;DHT22;20374;49.474;10.944;2023-08-08T14:34:29;21.10;81.30
34099;DHT22;20374;49.474;10.944;2023-08-08T14:36:55;21.20;81.40
34099;DHT22;20374;49.474;10.944;2023-08-08T14:39:21;21.20;80.00
34099;DHT22;20374;49.474;10.944;2023-08-08T14:41:47;20.90;81.60
34099;DHT22;20374;49.474;10.944;2023-08-08T14:44:13;21.00;82.60
34099;DHT22;20374;49.474;10.944;2023-08-08T14:46:39;21.00;82.10
34099;DHT22;20374;49.474;10.944;2023-08-08T14:49:04;21.20;82.80
34099;DHT22;20374;49.474;10.944;2023-08-08T14:51:31;21.40;84.30
34099;DHT22;20374;49.474;10.944;2023-08-08T14:53:57;21.50;79.30
34099;DHT22;20374;49.474;10.944;2023-08-08T14:56:23;21.40;76.60
34099;DHT22;20374;49.474;10.944;2023-08-08T14:58:49;21.40;79.60
34099;DHT22;20374;49.474;10.944;2023-08-08T15:01:15;21.40;78.30
34099;DHT22;20374;49.474;10.944;2023-08-08T15:03:41;21.50;80.30
34099;DHT22;20374;49.474;10.944;2023-08-08T15:06:08;21.50;77.80
34099;DHT22;20374;49.474;10.944;2023-08-08T15:08:34;21.50;78.70
34099;DHT22;20374;49.474;10.944;2023-08-08T15:11:00;21.20;77.30
34099;DHT22;20374;49.474;10.944;2023-08-08T15:13:26;21.10;79.20
34099;DHT22;20374;49.474;10.944;2023-08-08T15:15:52;21.20;80.20